John_paul K — PBHY — position and weather

sailwx.info

Track history (hours):
 
Tides and Currents Weather Stations Pressure Air Temp Water Temp Dewpoint Dewpoint Depression Visibility Wind Speed Wind Dir Waves Ship Positions

John_paul K

Last reported at 2014-Aug-18 00:22 UTC. Time now 2014-Aug-20 16:34 UTC.
Position N 50°35' E 000°17'.

Length 90 m; draft 5.4 m.

Type: Cargo ship. MMSI: 245181000.

Date/timePositionNaut miles runAvg speedWind from/ knotsBaromVisibWave heightAir tempDewpointWater temp
2014-Aug-18 00:22N 50°35' E 000°17'58 6.5
2014-Aug-17 15:31N 51°07' E 001°33'4 4.5
2014-Aug-17 14:33N 51°10' E 001°38'7 7.3
2014-Aug-17 13:33N 51°15' E 001°46'10 9.9
2014-Aug-17 12:33N 51°23' E 001°56'10 9.6
2014-Aug-17 11:32N 51°30' E 002°06'8 8.5
2014-Aug-17 10:33N 51°37' E 002°15'64 6.4
2014-Aug-17 00:29N 52°03' E 003°49'7 7.8
2014-Aug-16 23:33N 52°00' E 004°01'5 4.8
2014-Aug-16 22:33N 51°58' E 004°07'0 0.0
2014-Aug-16 21:32N 51°58' E 004°07'0 0.0
2014-Aug-16 20:32N 51°58' E 004°07'0 0.0
2014-Aug-16 19:32N 51°58' E 004°07'0 0.0
2014-Aug-16 18:32N 51°58' E 004°07'0 0.0
2014-Aug-16 17:32N 51°58' E 004°07'0 0.0
2014-Aug-16 16:32N 51°58' E 004°07'0 0.0
2014-Aug-16 15:32N 51°58' E 004°07'0 0.0
2014-Aug-16 14:29N 51°58' E 004°07'0 0.0
2014-Aug-16 13:32N 51°58' E 004°07'0 0.0
2014-Aug-16 12:29N 51°58' E 004°07'0 0.0
2014-Aug-16 11:32N 51°58' E 004°07'0 0.0
2014-Aug-16 10:29N 51°58' E 004°07'0 0.0
2014-Aug-16 09:32N 51°58' E 004°07'0 0.0
2014-Aug-16 08:32N 51°58' E 004°07'0 0.0
2014-Aug-16 07:32N 51°58' E 004°07'0 0.0
2014-Aug-16 06:32N 51°58' E 004°07'0 0.0
2014-Aug-16 05:32N 51°58' E 004°07'0 0.0
2014-Aug-16 04:29N 51°58' E 004°07'0 0.0
2014-Aug-16 03:32N 51°58' E 004°07'0 0.0
2014-Aug-16 02:32N 51°58' E 004°07'0 0.0
2014-Aug-16 01:32N 51°58' E 004°07'0 0.0
2014-Aug-16 00:32N 51°58' E 004°07'0 0.0
2014-Aug-15 23:32N 51°58' E 004°07'0 0.0
2014-Aug-15 22:32N 51°58' E 004°07'0 0.0
2014-Aug-15 21:29N 51°58' E 004°07'0 0.0
2014-Aug-15 20:26N 51°58' E 004°07'0 0.0
2014-Aug-15 19:26N 51°58' E 004°07'0 0.0
2014-Aug-15 18:29N 51°58' E 004°07'0 0.0
2014-Aug-15 17:26N 51°58' E 004°07'0 0.0
2014-Aug-15 16:29N 51°58' E 004°07'0 0.3
2014-Aug-15 15:31N 51°57' E 004°08'0 0.0
2014-Aug-15 14:31N 51°57' E 004°08'0 0.0
2014-Aug-15 13:31N 51°57' E 004°08'0 0.0
2014-Aug-15 12:31N 51°57' E 004°08'0 0.0
2014-Aug-15 11:28N 51°57' E 004°08'0 0.0
2014-Aug-15 10:31N 51°57' E 004°08'0 0.0
2014-Aug-15 09:31N 51°57' E 004°08'0 0.0
2014-Aug-15 08:31N 51°57' E 004°08'0 0.0
2014-Aug-15 07:31N 51°57' E 004°08'0 0.0
2014-Aug-15 06:31N 51°57' E 004°08'0 0.0
2014-Aug-15 05:31N 51°57' E 004°08'0 0.0
2014-Aug-15 04:31N 51°57' E 004°08'0 0.0
2014-Aug-15 03:28N 51°57' E 004°08'0 0.0
2014-Aug-15 02:31N 51°57' E 004°08'0 0.0
2014-Aug-15 01:31N 51°57' E 004°08'0 0.0
2014-Aug-15 00:31N 51°57' E 004°08'1 0.8
2014-Aug-14 23:33N 51°58' E 004°07'1010.1
2014-Aug-14 22:32N 52°00' E 003°50'2610.5
2014-Aug-14 20:05N 51°45' E 003°17'712.3
2014-Aug-14 19:33N 51°39' E 003°21'1413.5
2014-Aug-14 18:33N 51°27' E 003°32'1010.1
2014-Aug-14 17:34N 51°22' E 003°46'5 4.6
2014-Aug-14 16:34N 51°18' E 003°50'4 3.0
2014-Aug-14 15:17N 51°14' E 003°48'0 0.0
2014-Aug-14 14:32N 51°14' E 003°48'0 0.0
2014-Aug-14 13:33N 51°14' E 003°48'0 0.0
2014-Aug-14 12:23N 51°14' E 003°48'0 0.0
2014-Aug-14 11:24N 51°14' E 003°48'0 0.0
2014-Aug-14 10:18N 51°14' E 003°48'0 0.0
2014-Aug-14 09:33N 51°14' E 003°48'0 0.0
2014-Aug-14 08:33N 51°14' E 003°48'0 0.0
2014-Aug-14 07:29N 51°14' E 003°48'0 0.0
2014-Aug-14 06:32N 51°14' E 003°48'0 0.0
2014-Aug-14 05:32N 51°14' E 003°48'0 0.0
2014-Aug-14 04:33N 51°14' E 003°48'0 0.0
2014-Aug-14 03:33N 51°14' E 003°48'0 0.0
2014-Aug-14 02:32N 51°14' E 003°48'0 0.0
2014-Aug-14 01:29N 51°14' E 003°48'0 0.0
2014-Aug-14 00:29N 51°14' E 003°48'0 0.0
2014-Aug-13 23:29N 51°14' E 003°48'0 0.0
2014-Aug-13 22:32N 51°14' E 003°48'0 0.0
2014-Aug-13 21:32N 51°14' E 003°48'0 0.0
2014-Aug-13 20:26N 51°14' E 003°48'0 0.0
2014-Aug-13 19:32N 51°14' E 003°48'0 0.0
2014-Aug-13 18:20N 51°14' E 003°48'0 0.0
2014-Aug-13 17:20N 51°14' E 003°48'0 0.0
2014-Aug-13 16:32N 51°14' E 003°48'0 0.0
2014-Aug-13 15:32N 51°14' E 003°48'0 0.0
2014-Aug-13 14:32N 51°14' E 003°48'0 0.0
2014-Aug-13 13:30N 51°14' E 003°48'0 0.0
2014-Aug-13 12:24N 51°14' E 003°48'0 0.0
2014-Aug-13 11:34N 51°14' E 003°48'5 5.1
2014-Aug-13 10:33N 51°19' E 003°49'2 2.5
2014-Aug-13 09:34N 51°21' E 003°47'8 8.2
2014-Aug-13 08:33N 51°26' E 003°36'8 7.9
2014-Aug-13 07:33N 51°24' E 003°23'19 9.5
2014-Aug-13 05:34N 51°22' E 002°53'1010.1
2014-Aug-13 04:33N 51°21' E 002°37'1 1.1
2014-Aug-13 03:32N 51°20' E 002°35'0 0.0
2014-Aug-13 02:32N 51°20' E 002°35'0 0.1
2014-Aug-13 01:29N 51°20' E 002°35'0 0.0
2014-Aug-13 00:29N 51°20' E 002°35'0 0.1
2014-Aug-12 23:32N 51°20' E 002°35'0 0.1
2014-Aug-12 22:32N 51°20' E 002°35'0 0.0
2014-Aug-12 21:32N 51°20' E 002°35'0 0.1
2014-Aug-12 20:32N 51°20' E 002°35'0 0.2
2014-Aug-12 19:32N 51°20' E 002°35'0 0.1
2014-Aug-12 18:32N 51°20' E 002°35'0 0.0
2014-Aug-12 17:32N 51°20' E 002°35'0 0.0
2014-Aug-12 16:32N 51°20' E 002°35'0 0.0
2014-Aug-12 15:32N 51°20' E 002°35'0 0.0
2014-Aug-12 14:32N 51°20' E 002°35'0 0.1
2014-Aug-12 13:33N 51°20' E 002°35'8 7.5
2014-Aug-12 12:33N 51°20' E 002°23'1110.7
2014-Aug-12 11:32N 51°14' E 002°09'1110.7
2014-Aug-12 10:34N 51°09' E 001°54'9 8.6
2014-Aug-12 09:33N 51°03' E 001°43'43 6.8
2014-Aug-12 03:10N 50°32' E 000°56'5 8.2
2014-Aug-12 02:33N 50°30' E 000°48'8 8.4
2014-Aug-12 01:33N 50°28' E 000°36'9 8.6
2014-Aug-12 00:33N 50°25' E 000°23'259 7.2
2014-Aug-10 12:33N 48°05' W 005°11'9 7.7
2014-Aug-10 11:23N 47°58' W 005°01'7 7.6
2014-Aug-10 10:30N 47°54' W 004°54'  
Track history (hours):
 
Tides and Currents Weather Stations Pressure Air Temp Water Temp Dewpoint Dewpoint Depression Visibility Wind Speed Wind Dir Waves Ship Positions

John_paul K

Last reported at 2014-Aug-18 00:22 UTC. Time now 2014-Aug-20 16:34 UTC.
Position N 50°35' E 000°17'.

Length 90 m; draft 5.4 m.

Type: Cargo ship. MMSI: 245181000.

Date/timePositionNaut miles runAvg speedWind from/ knotsBaromVisibWave heightAir tempDewpointWater temp
2014-Aug-18 00:22N 50°35' E 000°17'58 6.5
2014-Aug-17 15:31N 51°07' E 001°33'4 4.5
2014-Aug-17 14:33N 51°10' E 001°38'7 7.3
2014-Aug-17 13:33N 51°15' E 001°46'10 9.9
2014-Aug-17 12:33N 51°23' E 001°56'10 9.6
2014-Aug-17 11:32N 51°30' E 002°06'8 8.5
2014-Aug-17 10:33N 51°37' E 002°15'64 6.4
2014-Aug-17 00:29N 52°03' E 003°49'7 7.8
2014-Aug-16 23:33N 52°00' E 004°01'5 4.8
2014-Aug-16 22:33N 51°58' E 004°07'0 0.0
2014-Aug-16 21:32N 51°58' E 004°07'0 0.0
2014-Aug-16 20:32N 51°58' E 004°07'0 0.0
2014-Aug-16 19:32N 51°58' E 004°07'0 0.0
2014-Aug-16 18:32N 51°58' E 004°07'0 0.0
2014-Aug-16 17:32N 51°58' E 004°07'0 0.0
2014-Aug-16 16:32N 51°58' E 004°07'0 0.0
2014-Aug-16 15:32N 51°58' E 004°07'0 0.0
2014-Aug-16 14:29N 51°58' E 004°07'0 0.0
2014-Aug-16 13:32N 51°58' E 004°07'0 0.0
2014-Aug-16 12:29N 51°58' E 004°07'0 0.0
2014-Aug-16 11:32N 51°58' E 004°07'0 0.0
2014-Aug-16 10:29N 51°58' E 004°07'0 0.0
2014-Aug-16 09:32N 51°58' E 004°07'0 0.0
2014-Aug-16 08:32N 51°58' E 004°07'0 0.0
2014-Aug-16 07:32N 51°58' E 004°07'0 0.0
2014-Aug-16 06:32N 51°58' E 004°07'0 0.0
2014-Aug-16 05:32N 51°58' E 004°07'0 0.0
2014-Aug-16 04:29N 51°58' E 004°07'0 0.0
2014-Aug-16 03:32N 51°58' E 004°07'0 0.0
2014-Aug-16 02:32N 51°58' E 004°07'0 0.0
2014-Aug-16 01:32N 51°58' E 004°07'0 0.0
2014-Aug-16 00:32N 51°58' E 004°07'0 0.0
2014-Aug-15 23:32N 51°58' E 004°07'0 0.0
2014-Aug-15 22:32N 51°58' E 004°07'0 0.0
2014-Aug-15 21:29N 51°58' E 004°07'0 0.0
2014-Aug-15 20:26N 51°58' E 004°07'0 0.0
2014-Aug-15 19:26N 51°58' E 004°07'0 0.0
2014-Aug-15 18:29N 51°58' E 004°07'0 0.0
2014-Aug-15 17:26N 51°58' E 004°07'0 0.0
2014-Aug-15 16:29N 51°58' E 004°07'0 0.3
2014-Aug-15 15:31N 51°57' E 004°08'0 0.0
2014-Aug-15 14:31N 51°57' E 004°08'0 0.0
2014-Aug-15 13:31N 51°57' E 004°08'0 0.0
2014-Aug-15 12:31N 51°57' E 004°08'0 0.0
2014-Aug-15 11:28N 51°57' E 004°08'0 0.0
2014-Aug-15 10:31N 51°57' E 004°08'0 0.0
2014-Aug-15 09:31N 51°57' E 004°08'0 0.0
2014-Aug-15 08:31N 51°57' E 004°08'0 0.0
2014-Aug-15 07:31N 51°57' E 004°08'0 0.0
2014-Aug-15 06:31N 51°57' E 004°08'0 0.0
2014-Aug-15 05:31N 51°57' E 004°08'0 0.0
2014-Aug-15 04:31N 51°57' E 004°08'0 0.0
2014-Aug-15 03:28N 51°57' E 004°08'0 0.0
2014-Aug-15 02:31N 51°57' E 004°08'0 0.0
2014-Aug-15 01:31N 51°57' E 004°08'0 0.0
2014-Aug-15 00:31N 51°57' E 004°08'1 0.8
2014-Aug-14 23:33N 51°58' E 004°07'1010.1
2014-Aug-14 22:32N 52°00' E 003°50'2610.5
2014-Aug-14 20:05N 51°45' E 003°17'712.3
2014-Aug-14 19:33N 51°39' E 003°21'1413.5
2014-Aug-14 18:33N 51°27' E 003°32'1010.1
2014-Aug-14 17:34N 51°22' E 003°46'5 4.6
2014-Aug-14 16:34N 51°18' E 003°50'4 3.0
2014-Aug-14 15:17N 51°14' E 003°48'0 0.0
2014-Aug-14 14:32N 51°14' E 003°48'0 0.0
2014-Aug-14 13:33N 51°14' E 003°48'0 0.0
2014-Aug-14 12:23N 51°14' E 003°48'0 0.0
2014-Aug-14 11:24N 51°14' E 003°48'0 0.0
2014-Aug-14 10:18N 51°14' E 003°48'0 0.0
2014-Aug-14 09:33N 51°14' E 003°48'0 0.0
2014-Aug-14 08:33N 51°14' E 003°48'0 0.0
2014-Aug-14 07:29N 51°14' E 003°48'0 0.0
2014-Aug-14 06:32N 51°14' E 003°48'0 0.0
2014-Aug-14 05:32N 51°14' E 003°48'0 0.0
2014-Aug-14 04:33N 51°14' E 003°48'0 0.0
2014-Aug-14 03:33N 51°14' E 003°48'0 0.0
2014-Aug-14 02:32N 51°14' E 003°48'0 0.0
2014-Aug-14 01:29N 51°14' E 003°48'0 0.0
2014-Aug-14 00:29N 51°14' E 003°48'0 0.0
2014-Aug-13 23:29N 51°14' E 003°48'0 0.0
2014-Aug-13 22:32N 51°14' E 003°48'0 0.0
2014-Aug-13 21:32N 51°14' E 003°48'0 0.0
2014-Aug-13 20:26N 51°14' E 003°48'0 0.0
2014-Aug-13 19:32N 51°14' E 003°48'0 0.0
2014-Aug-13 18:20N 51°14' E 003°48'0 0.0
2014-Aug-13 17:20N 51°14' E 003°48'0 0.0
2014-Aug-13 16:32N 51°14' E 003°48'0 0.0
2014-Aug-13 15:32N 51°14' E 003°48'0 0.0
2014-Aug-13 14:32N 51°14' E 003°48'0 0.0
2014-Aug-13 13:30N 51°14' E 003°48'0 0.0
2014-Aug-13 12:24N 51°14' E 003°48'0 0.0
2014-Aug-13 11:34N 51°14' E 003°48'5 5.1
2014-Aug-13 10:33N 51°19' E 003°49'2 2.5
2014-Aug-13 09:34N 51°21' E 003°47'8 8.2
2014-Aug-13 08:33N 51°26' E 003°36'8 7.9
2014-Aug-13 07:33N 51°24' E 003°23'19 9.5
2014-Aug-13 05:34N 51°22' E 002°53'1010.1
2014-Aug-13 04:33N 51°21' E 002°37'1 1.1
2014-Aug-13 03:32N 51°20' E 002°35'0 0.0
2014-Aug-13 02:32N 51°20' E 002°35'0 0.1
2014-Aug-13 01:29N 51°20' E 002°35'0 0.0
2014-Aug-13 00:29N 51°20' E 002°35'0 0.1
2014-Aug-12 23:32N 51°20' E 002°35'0 0.1
2014-Aug-12 22:32N 51°20' E 002°35'0 0.0
2014-Aug-12 21:32N 51°20' E 002°35'0 0.1
2014-Aug-12 20:32N 51°20' E 002°35'0 0.2
2014-Aug-12 19:32N 51°20' E 002°35'0 0.1
2014-Aug-12 18:32N 51°20' E 002°35'0 0.0
2014-Aug-12 17:32N 51°20' E 002°35'0 0.0
2014-Aug-12 16:32N 51°20' E 002°35'0 0.0
2014-Aug-12 15:32N 51°20' E 002°35'0 0.0
2014-Aug-12 14:32N 51°20' E 002°35'0 0.1
2014-Aug-12 13:33N 51°20' E 002°35'8 7.5
2014-Aug-12 12:33N 51°20' E 002°23'1110.7
2014-Aug-12 11:32N 51°14' E 002°09'1110.7
2014-Aug-12 10:34N 51°09' E 001°54'9 8.6
2014-Aug-12 09:33N 51°03' E 001°43'43 6.8
2014-Aug-12 03:10N 50°32' E 000°56'5 8.2
2014-Aug-12 02:33N 50°30' E 000°48'8 8.4
2014-Aug-12 01:33N 50°28' E 000°36'9 8.6
2014-Aug-12 00:33N 50°25' E 000°23'259 7.2
2014-Aug-10 12:33N 48°05' W 005°11'9 7.7
2014-Aug-10 11:23N 47°58' W 005°01'7 7.6
2014-Aug-10 10:30N 47°54' W 004°54'  

Dump ship's entire track history